createdAt,value
2019-02-23T00:00:18.377Z,19.13
2019-02-23T00:01:20.305Z,19.13
2019-02-23T00:02:18.358Z,19.13
2019-02-23T00:03:18.733Z,19.12
2019-02-23T00:04:18.479Z,19.13
2019-02-23T00:05:18.777Z,19.11
2019-02-23T00:06:30.411Z,19.1
2019-02-23T00:07:18.967Z,19.1
2019-02-23T00:08:18.388Z,19.11
2019-02-23T00:09:18.656Z,19.09
2019-02-23T00:10:19.300Z,19.09
2019-02-23T00:11:18.985Z,19.08
2019-02-23T00:12:18.498Z,19.11
2019-02-23T00:13:18.675Z,19.1
2019-02-23T00:14:18.360Z,19.09
2019-02-23T00:15:18.424Z,19.09
2019-02-23T00:16:20.353Z,19.08
2019-02-23T00:17:18.816Z,19.07
2019-02-23T00:18:18.757Z,19.07
2019-02-23T00:19:25.456Z,19.07
2019-02-23T00:20:18.394Z,19.05
2019-02-23T00:21:18.687Z,19.03
2019-02-23T00:22:18.761Z,19.08
2019-02-23T00:23:18.787Z,19.06
2019-02-23T00:24:18.968Z,19.03
2019-02-23T00:25:18.669Z,19.05
2019-02-23T00:26:18.304Z,19.03
2019-02-23T00:27:18.793Z,19.05
2019-02-23T00:28:18.737Z,19.02
2019-02-23T00:29:18.730Z,19.05
2019-02-23T00:30:18.707Z,19.05
2019-02-23T00:31:18.438Z,19.05
2019-02-23T00:32:19.108Z,19.05
2019-02-23T00:33:19.668Z,19.02
2019-02-23T00:34:19.211Z,19
2019-02-23T00:35:19.078Z,19.05
2019-02-23T00:36:18.889Z,19.01
2019-02-23T00:37:18.780Z,19.01
2019-02-23T00:38:18.297Z,19
2019-02-23T00:39:18.130Z,19
2019-02-23T00:40:18.278Z,18.99
2019-02-23T00:41:18.590Z,19
2019-02-23T00:42:18.597Z,18.99
2019-02-23T00:43:18.704Z,18.99
2019-02-23T00:44:19.133Z,19.01
2019-02-23T00:45:18.302Z,18.99
2019-02-23T00:46:18.744Z,18.99
2019-02-23T00:47:18.413Z,18.99
2019-02-23T00:48:18.288Z,18.98
2019-02-23T00:49:18.769Z,18.98
2019-02-23T00:50:18.755Z,18.98
2019-02-23T00:51:18.566Z,18.96
2019-02-23T00:52:18.758Z,18.97
2019-02-23T00:53:18.374Z,18.95
2019-02-23T00:54:19.294Z,18.95
2019-02-23T00:55:18.639Z,18.92
2019-02-23T00:56:18.475Z,18.94
2019-02-23T00:57:18.694Z,18.94
2019-02-23T00:58:19.011Z,18.96
2019-02-23T00:59:18.729Z,18.94
2019-02-23T01:00:18.667Z,18.92
2019-02-23T01:01:18.373Z,18.94
2019-02-23T01:02:18.346Z,18.93
2019-02-23T01:03:18.655Z,18.94
2019-02-23T01:04:18.751Z,18.91
2019-02-23T01:05:18.241Z,18.92
2019-02-23T01:06:20.192Z,18.93
2019-02-23T01:07:18.967Z,18.93
2019-02-23T01:08:18.787Z,18.91
2019-02-23T01:09:18.261Z,18.89
2019-02-23T01:10:19.854Z,18.91
2019-02-23T01:11:18.385Z,18.89
2019-02-23T01:12:18.506Z,18.89
2019-02-23T01:13:18.408Z,18.88
2019-02-23T01:14:18.514Z,18.89
2019-02-23T01:15:19.312Z,18.89
2019-02-23T01:16:19.061Z,18.88
2019-02-23T01:17:18.308Z,18.86
2019-02-23T01:18:18.858Z,18.88
2019-02-23T01:19:18.565Z,18.87
2019-02-23T01:20:18.757Z,18.87
2019-02-23T01:21:18.795Z,18.86
2019-02-23T01:22:18.497Z,18.86
2019-02-23T01:23:20.522Z,18.88
2019-02-23T01:24:18.766Z,18.86
2019-02-23T01:25:18.670Z,18.86
2019-02-23T01:26:18.707Z,18.86
2019-02-23T01:27:18.901Z,18.84
2019-02-23T01:28:18.216Z,18.86
2019-02-23T01:29:18.428Z,18.87
2019-02-23T01:30:18.722Z,18.84
2019-02-23T01:31:18.734Z,18.85
2019-02-23T01:32:18.644Z,18.85
2019-02-23T01:33:18.948Z,18.85
2019-02-23T01:34:18.714Z,18.84
2019-02-23T01:35:18.750Z,18.86
2019-02-23T01:36:18.468Z,18.83
2019-02-23T01:37:19.004Z,18.83
2019-02-23T01:38:20.304Z,18.82
2019-02-23T01:39:18.206Z,18.82
2019-02-23T01:40:18.716Z,18.82
2019-02-23T01:41:18.686Z,18.83
2019-02-23T01:42:18.197Z,18.82
2019-02-23T01:43:18.749Z,18.81
2019-02-23T01:44:18.353Z,18.81
2019-02-23T01:45:18.308Z,18.8
2019-02-23T01:46:18.627Z,18.8
2019-02-23T01:47:18.762Z,18.82
2019-02-23T01:48:18.424Z,18.79
2019-02-23T01:49:18.393Z,18.78
2019-02-23T01:50:18.458Z,18.79
2019-02-23T01:51:18.294Z,18.81
2019-02-23T01:52:18.348Z,18.81
2019-02-23T01:53:20.330Z,18.77
2019-02-23T01:54:18.396Z,18.78
2019-02-23T01:55:18.381Z,18.76
2019-02-23T01:56:18.474Z,18.78
2019-02-23T01:57:19.245Z,18.77
2019-02-23T01:58:19.341Z,18.76
2019-02-23T01:59:18.758Z,18.78
2019-02-23T02:00:18.393Z,18.76
2019-02-23T02:01:18.674Z,18.74
2019-02-23T02:02:18.193Z,18.76
2019-02-23T02:03:20.233Z,18.74
2019-02-23T02:04:18.868Z,18.76
2019-02-23T02:05:18.574Z,18.77
2019-02-23T02:06:18.379Z,18.73
2019-02-23T02:07:18.786Z,18.74
2019-02-23T02:08:18.318Z,18.74
2019-02-23T02:09:19.342Z,18.72
2019-02-23T02:10:19.158Z,18.71
2019-02-23T02:11:18.417Z,18.72
2019-02-23T02:12:18.407Z,18.71
2019-02-23T02:13:18.794Z,18.72
2019-02-23T02:14:18.744Z,18.71
2019-02-23T02:15:18.822Z,18.7
2019-02-23T02:16:19.157Z,18.7
2019-02-23T02:17:18.363Z,18.71
2019-02-23T02:18:18.641Z,18.7
2019-02-23T02:19:18.761Z,18.7
2019-02-23T02:20:19.007Z,18.72
2019-02-23T02:21:18.695Z,18.7
2019-02-23T02:22:18.388Z,18.7
2019-02-23T02:23:18.511Z,18.7
2019-02-23T02:24:18.810Z,18.69
2019-02-23T02:25:19.005Z,18.7
2019-02-23T02:26:18.512Z,18.68
2019-02-23T02:27:18.846Z,18.67
2019-02-23T02:28:18.714Z,18.69
2019-02-23T02:29:18.736Z,18.69
2019-02-23T02:30:18.760Z,18.68
2019-02-23T02:31:18.572Z,18.67
2019-02-23T02:32:20.228Z,18.67
2019-02-23T02:33:18.335Z,18.66
2019-02-23T02:34:18.504Z,18.67
2019-02-23T02:35:18.823Z,18.67
2019-02-23T02:36:18.504Z,18.65
2019-02-23T02:37:18.262Z,18.64
2019-02-23T02:38:18.894Z,18.65
2019-02-23T02:39:18.504Z,18.66
2019-02-23T02:40:18.612Z,18.64
2019-02-23T02:41:18.959Z,18.64
2019-02-23T02:42:18.897Z,18.66
2019-02-23T02:43:18.338Z,18.65
2019-02-23T02:44:18.772Z,18.63
2019-02-23T02:45:18.271Z,18.65
2019-02-23T02:46:18.453Z,18.64
2019-02-23T02:47:19.652Z,18.64
2019-02-23T02:48:18.467Z,18.63
2019-02-23T02:49:18.938Z,18.63
2019-02-23T02:50:25.117Z,18.63
2019-02-23T02:51:18.275Z,18.62
2019-02-23T02:52:18.724Z,18.62
2019-02-23T02:53:18.472Z,18.59
2019-02-23T02:54:18.533Z,18.62
2019-02-23T02:55:18.887Z,18.59
2019-02-23T02:56:19.167Z,18.63
2019-02-23T02:57:18.455Z,18.62
2019-02-23T02:58:18.738Z,18.61
2019-02-23T02:59:18.523Z,18.58
2019-02-23T03:00:18.590Z,18.62
2019-02-23T03:01:18.432Z,18.58
2019-02-23T03:02:18.806Z,18.61
2019-02-23T03:03:18.126Z,18.59
2019-02-23T03:04:18.751Z,18.59
2019-02-23T03:05:18.838Z,18.59
2019-02-23T03:06:18.916Z,18.58
2019-02-23T03:07:18.718Z,18.57
2019-02-23T03:08:18.676Z,18.56
2019-02-23T03:09:18.276Z,18.58
2019-02-23T03:10:18.962Z,18.57
2019-02-23T03:11:18.562Z,18.57
2019-02-23T03:12:18.759Z,18.56
2019-02-23T03:13:18.881Z,18.57
2019-02-23T03:14:18.263Z,18.55
2019-02-23T03:15:18.653Z,18.56
2019-02-23T03:16:18.430Z,18.57
2019-02-23T03:17:18.219Z,18.55
2019-02-23T03:18:18.276Z,18.54
2019-02-23T03:19:18.205Z,18.54
2019-02-23T03:20:18.232Z,18.56
2019-02-23T03:21:18.585Z,18.55
2019-02-23T03:22:20.059Z,18.53
2019-02-23T03:23:18.206Z,18.53
2019-02-23T03:24:18.278Z,18.53
2019-02-23T03:25:18.282Z,18.53
2019-02-23T03:26:20.240Z,18.52
2019-02-23T03:27:19.145Z,18.52
2019-02-23T03:28:18.748Z,18.51
2019-02-23T03:29:18.367Z,18.52
2019-02-23T03:30:18.931Z,18.53
2019-02-23T03:31:18.374Z,18.53
2019-02-23T03:32:18.287Z,18.51
2019-02-23T03:33:18.533Z,18.52
2019-02-23T03:34:18.341Z,18.49
2019-02-23T03:35:19.035Z,18.52
2019-02-23T03:36:18.143Z,18.5
2019-02-23T03:37:18.377Z,18.52
2019-02-23T03:38:18.663Z,18.52
2019-02-23T03:39:18.429Z,18.51
2019-02-23T03:40:18.545Z,18.51
2019-02-23T03:41:18.351Z,18.5
2019-02-23T03:42:18.523Z,18.49
2019-02-23T03:43:18.561Z,18.49
2019-02-23T03:44:18.195Z,18.48
2019-02-23T03:45:18.486Z,18.46
2019-02-23T03:46:18.997Z,18.48
2019-02-23T03:47:18.572Z,18.48
2019-02-23T03:48:18.309Z,18.49
2019-02-23T03:49:19.199Z,18.48
2019-02-23T03:50:18.501Z,18.44
2019-02-23T03:51:18.561Z,18.47
2019-02-23T03:52:19.314Z,18.47
2019-02-23T03:53:18.266Z,18.49
2019-02-23T03:54:18.753Z,18.44
2019-02-23T03:55:18.856Z,18.48
2019-02-23T03:56:18.433Z,18.47
2019-02-23T03:57:18.383Z,18.44
2019-02-23T03:58:18.785Z,18.46
2019-02-23T03:59:18.172Z,18.44
2019-02-23T04:00:18.306Z,18.44
2019-02-23T04:01:18.468Z,18.44
2019-02-23T04:02:18.865Z,18.44
2019-02-23T04:03:20.244Z,18.44
2019-02-23T04:04:18.700Z,18.43
2019-02-23T04:05:18.424Z,18.44
2019-02-23T04:06:18.271Z,18.43
2019-02-23T04:07:19.254Z,18.43
2019-02-23T04:08:18.941Z,18.44
2019-02-23T04:09:18.355Z,18.44
2019-02-23T04:10:20.074Z,18.42
2019-02-23T04:11:18.307Z,18.41
2019-02-23T04:12:18.990Z,18.41
2019-02-23T04:13:20.270Z,18.41
2019-02-23T04:14:18.677Z,18.39
2019-02-23T04:15:18.873Z,18.42
2019-02-23T04:16:18.228Z,18.41
2019-02-23T04:17:18.725Z,18.41
2019-02-23T04:18:18.630Z,18.39
2019-02-23T04:19:18.533Z,18.4
2019-02-23T04:20:18.384Z,18.39
2019-02-23T04:21:18.302Z,18.39
2019-02-23T04:22:18.841Z,18.39
2019-02-23T04:23:20.217Z,18.4
2019-02-23T04:24:18.432Z,18.38
2019-02-23T04:25:18.629Z,18.38
2019-02-23T04:26:18.410Z,18.39
2019-02-23T04:27:18.352Z,18.38
2019-02-23T04:28:18.599Z,18.4
2019-02-23T04:29:19.399Z,18.38
2019-02-23T04:30:18.319Z,18.37
2019-02-23T04:31:18.608Z,18.4
2019-02-23T04:32:18.704Z,18.39
2019-02-23T04:33:20.123Z,18.36
2019-02-23T04:34:18.619Z,18.38
2019-02-23T04:35:18.403Z,18.37
2019-02-23T04:36:18.361Z,18.38
2019-02-23T04:37:18.453Z,18.37
2019-02-23T04:38:18.975Z,18.37
2019-02-23T04:39:18.647Z,18.37
2019-02-23T04:40:18.481Z,18.36
2019-02-23T04:41:18.669Z,18.36
2019-02-23T04:42:18.346Z,18.36
2019-02-23T04:43:18.963Z,18.36
2019-02-23T04:44:18.545Z,18.37
2019-02-23T04:45:18.419Z,18.37
2019-02-23T04:46:18.814Z,18.37
2019-02-23T04:47:18.151Z,18.37
2019-02-23T04:48:18.472Z,18.34
2019-02-23T04:49:18.713Z,18.37
2019-02-23T04:50:19.485Z,18.36
2019-02-23T04:51:19.167Z,18.36
2019-02-23T04:52:18.776Z,18.36
2019-02-23T04:53:18.250Z,18.36
2019-02-23T04:54:18.592Z,18.36
2019-02-23T04:55:18.556Z,18.35
2019-02-23T04:56:20.135Z,18.35
2019-02-23T04:57:18.384Z,18.35
2019-02-23T04:58:20.002Z,18.37
2019-02-23T04:59:18.512Z,18.39
2019-02-23T05:00:18.489Z,18.39
2019-02-23T05:01:18.499Z,18.39
2019-02-23T05:02:18.844Z,18.41
2019-02-23T05:03:19.213Z,18.42
2019-02-23T05:04:19.949Z,18.44
2019-02-23T05:05:18.643Z,18.47
2019-02-23T05:06:18.468Z,18.46
2019-02-23T05:07:18.297Z,18.47
2019-02-23T05:08:18.594Z,18.5
2019-02-23T05:09:18.886Z,18.5
2019-02-23T05:10:18.559Z,18.51
2019-02-23T05:11:18.430Z,18.52
2019-02-23T05:12:18.432Z,18.56
2019-02-23T05:13:18.298Z,18.57
2019-02-23T05:14:18.809Z,18.57
2019-02-23T05:15:18.338Z,18.61
2019-02-23T05:16:18.503Z,18.63
2019-02-23T05:17:18.786Z,18.65
2019-02-23T05:18:18.552Z,18.67
2019-02-23T05:19:18.640Z,18.68
2019-02-23T05:20:18.789Z,18.69
2019-02-23T05:21:27.224Z,18.7
2019-02-23T05:22:18.367Z,18.73
2019-02-23T05:23:18.756Z,18.74
2019-02-23T05:24:18.671Z,18.73
2019-02-23T05:25:18.247Z,18.77
2019-02-23T05:26:18.703Z,18.8
2019-02-23T05:27:18.198Z,18.78
2019-02-23T05:28:18.940Z,18.79
2019-02-23T05:29:18.081Z,18.82
2019-02-23T05:30:18.498Z,18.84
2019-02-23T05:31:18.359Z,18.84
2019-02-23T05:32:18.310Z,18.87
2019-02-23T05:33:19.042Z,18.87
2019-02-23T05:34:18.164Z,18.91
2019-02-23T05:35:18.450Z,18.92
2019-02-23T05:36:18.398Z,18.92
2019-02-23T05:37:18.653Z,18.95
2019-02-23T05:38:18.167Z,18.97
2019-02-23T05:39:18.393Z,18.97
2019-02-23T05:40:18.545Z,18.98
2019-02-23T05:41:18.211Z,18.98
2019-02-23T05:42:18.576Z,18.99
2019-02-23T05:43:18.509Z,19.02
2019-02-23T05:44:18.305Z,19.02
2019-02-23T05:45:18.748Z,19.03
2019-02-23T05:46:18.576Z,19.05
2019-02-23T05:47:18.642Z,19.07
2019-02-23T05:48:18.506Z,19.09
2019-02-23T05:49:18.631Z,19.09
2019-02-23T05:50:18.315Z,19.1
2019-02-23T05:51:18.390Z,19.11
2019-02-23T05:52:18.237Z,19.13
2019-02-23T05:53:18.317Z,19.14
2019-02-23T05:54:18.422Z,19.15
2019-02-23T05:55:20.094Z,19.14
2019-02-23T05:56:18.414Z,19.17
2019-02-23T05:57:18.499Z,19.2
2019-02-23T05:58:18.118Z,19.18
2019-02-23T05:59:18.543Z,19.22
2019-02-23T06:00:18.431Z,19.23
2019-02-23T06:01:18.614Z,19.23
2019-02-23T06:02:18.372Z,19.24
2019-02-23T06:03:19.982Z,19.24
2019-02-23T06:04:20.005Z,19.27
2019-02-23T06:05:18.775Z,19.27
2019-02-23T06:06:18.566Z,19.28
2019-02-23T06:07:18.406Z,19.31
2019-02-23T06:08:18.259Z,19.3
2019-02-23T06:09:18.891Z,19.3
2019-02-23T06:10:18.618Z,19.33
2019-02-23T06:11:18.386Z,19.32
2019-02-23T06:12:18.418Z,19.33
2019-02-23T06:13:18.193Z,19.36
2019-02-23T06:14:18.435Z,19.35
2019-02-23T06:15:18.134Z,19.37
2019-02-23T06:16:19.243Z,19.39
2019-02-23T06:17:19.061Z,19.4
2019-02-23T06:18:18.288Z,19.4
2019-02-23T06:19:18.486Z,19.41
2019-02-23T06:20:18.988Z,19.44
2019-02-23T06:21:18.449Z,19.45
2019-02-23T06:22:18.788Z,19.45
2019-02-23T06:23:20.181Z,19.45
2019-02-23T06:24:18.133Z,19.45
2019-02-23T06:25:18.250Z,19.46
2019-02-23T06:26:18.133Z,19.48
2019-02-23T06:27:18.158Z,19.46
2019-02-23T06:28:18.039Z,19.5
2019-02-23T06:29:18.226Z,19.47
2019-02-23T06:30:18.767Z,19.51
2019-02-23T06:31:19.154Z,19.51
2019-02-23T06:32:18.763Z,19.52
2019-02-23T06:33:18.470Z,19.53
2019-02-23T06:34:18.893Z,19.54
2019-02-23T06:35:18.922Z,19.54
2019-02-23T06:36:18.500Z,19.54
2019-02-23T06:37:18.451Z,19.55
2019-02-23T06:38:19.652Z,19.58
2019-02-23T06:39:18.405Z,19.56
2019-02-23T06:40:18.528Z,19.58
2019-02-23T06:41:18.916Z,19.57
2019-02-23T06:42:18.213Z,19.58
2019-02-23T06:43:18.419Z,19.58
2019-02-23T06:44:18.322Z,19.59
2019-02-23T06:45:18.279Z,19.6
2019-02-23T06:46:18.569Z,19.59
2019-02-23T06:47:18.350Z,19.59
2019-02-23T06:48:20.426Z,19.6
2019-02-23T06:49:18.438Z,19.61
2019-02-23T06:50:18.182Z,19.62
2019-02-23T06:51:18.866Z,19.62
2019-02-23T06:52:18.386Z,19.6
2019-02-23T06:53:18.503Z,19.62
2019-02-23T06:54:18.467Z,19.61
2019-02-23T06:55:18.720Z,19.63
2019-02-23T06:56:18.448Z,19.62
2019-02-23T06:57:18.733Z,19.63
2019-02-23T06:58:18.473Z,19.63
2019-02-23T06:59:18.293Z,19.65
2019-02-23T07:00:19.170Z,19.66
2019-02-23T07:01:18.109Z,19.63
2019-02-23T07:02:18.436Z,19.65
2019-02-23T07:03:18.501Z,19.68
2019-02-23T07:04:18.341Z,19.66
2019-02-23T07:05:18.751Z,19.67
2019-02-23T07:06:19.002Z,19.67
2019-02-23T07:07:18.732Z,19.67
2019-02-23T07:08:18.691Z,19.67
2019-02-23T07:09:18.521Z,19.67
2019-02-23T07:10:18.245Z,19.67
2019-02-23T07:11:18.250Z,19.69
2019-02-23T07:12:18.440Z,19.67
2019-02-23T07:13:18.841Z,19.67
2019-02-23T07:14:18.229Z,19.66
2019-02-23T07:15:18.238Z,19.68
2019-02-23T07:16:18.698Z,19.69
2019-02-23T07:17:18.719Z,19.67
2019-02-23T07:18:18.228Z,19.68
2019-02-23T07:19:18.352Z,19.68
2019-02-23T07:20:18.381Z,19.68
2019-02-23T07:21:19.083Z,19.7
2019-02-23T07:22:19.044Z,19.69
2019-02-23T07:23:18.900Z,19.67
2019-02-23T07:24:18.540Z,19.71
2019-02-23T07:25:18.860Z,19.7
2019-02-23T07:26:18.263Z,19.69
2019-02-23T07:27:18.431Z,19.69
2019-02-23T07:28:18.570Z,19.69
2019-02-23T07:29:18.749Z,19.68
2019-02-23T07:30:18.141Z,19.69
2019-02-23T07:31:18.331Z,19.69
2019-02-23T07:32:18.390Z,19.71
2019-02-23T07:33:33.478Z,19.71
2019-02-23T07:34:18.858Z,19.7
2019-02-23T07:35:18.252Z,19.71
2019-02-23T07:36:18.282Z,19.7
2019-02-23T07:37:18.326Z,19.72
2019-02-23T07:38:18.409Z,19.71
2019-02-23T07:39:18.275Z,19.7
2019-02-23T07:40:18.323Z,19.71
2019-02-23T07:41:18.343Z,19.71
2019-02-23T07:42:18.404Z,19.7
2019-02-23T07:43:19.016Z,19.71
2019-02-23T07:44:18.235Z,19.71
2019-02-23T07:45:18.564Z,19.71
2019-02-23T07:46:18.386Z,19.72
2019-02-23T07:47:18.901Z,19.71
2019-02-23T07:48:19.161Z,19.72
2019-02-23T07:49:19.113Z,19.71
2019-02-23T07:50:18.580Z,19.73
2019-02-23T07:51:18.321Z,19.72
2019-02-23T07:52:26.989Z,19.73
2019-02-23T07:53:18.521Z,19.74
2019-02-23T07:54:18.220Z,19.73
2019-02-23T07:55:18.326Z,19.74
2019-02-23T07:56:18.317Z,19.73
2019-02-23T07:57:18.234Z,19.73
2019-02-23T07:58:18.093Z,19.73
2019-02-23T07:59:18.572Z,19.73
2019-02-23T08:00:18.301Z,19.75
2019-02-23T08:01:18.392Z,19.75
2019-02-23T08:02:18.298Z,19.74
2019-02-23T08:03:18.412Z,19.76
2019-02-23T08:04:18.898Z,19.75
2019-02-23T08:05:20.164Z,19.75
2019-02-23T08:06:19.643Z,19.75
2019-02-23T08:07:18.818Z,19.75
2019-02-23T08:08:19.188Z,19.76
2019-02-23T08:09:18.987Z,19.74
2019-02-23T08:10:18.153Z,19.77
2019-02-23T08:11:20.206Z,19.75
2019-02-23T08:12:18.042Z,19.75
2019-02-23T08:13:18.657Z,19.76
2019-02-23T08:14:18.861Z,19.75
2019-02-23T08:15:18.553Z,19.77
2019-02-23T08:16:18.360Z,19.79
2019-02-23T08:17:18.250Z,19.77
2019-02-23T08:18:18.519Z,19.76
2019-02-23T08:19:18.444Z,19.77
2019-02-23T08:20:18.170Z,19.79
2019-02-23T08:21:18.378Z,19.77
2019-02-23T08:22:18.713Z,19.81
2019-02-23T08:23:18.297Z,19.8
2019-02-23T08:24:18.449Z,19.79
2019-02-23T08:25:18.919Z,19.79
2019-02-23T08:26:18.818Z,19.79
2019-02-23T08:27:18.364Z,19.81
2019-02-23T08:28:18.630Z,19.81
2019-02-23T08:29:18.185Z,19.81
2019-02-23T08:30:18.280Z,19.8
2019-02-23T08:31:18.403Z,19.79
2019-02-23T08:32:18.640Z,19.81
2019-02-23T08:33:18.732Z,19.77
2019-02-23T08:34:18.397Z,19.82
2019-02-23T08:35:20.036Z,19.81
2019-02-23T08:36:18.626Z,19.81
2019-02-23T08:37:18.283Z,19.8
2019-02-23T08:38:19.020Z,19.8
2019-02-23T08:39:18.441Z,19.8
2019-02-23T08:40:18.411Z,19.82
2019-02-23T08:41:18.660Z,19.83
2019-02-23T08:42:18.372Z,19.82
2019-02-23T08:43:21.023Z,19.81
2019-02-23T08:44:18.693Z,19.83
2019-02-23T08:45:18.261Z,19.82
2019-02-23T08:46:18.420Z,19.81
2019-02-23T08:47:19.618Z,19.81
2019-02-23T08:48:18.406Z,19.81
2019-02-23T08:49:18.674Z,19.82
2019-02-23T08:50:18.242Z,19.84
2019-02-23T08:51:18.949Z,19.82
2019-02-23T08:52:18.240Z,19.82
2019-02-23T08:53:18.548Z,19.84
2019-02-23T08:54:18.084Z,19.84
2019-02-23T08:55:18.476Z,19.85
2019-02-23T08:56:18.338Z,19.86
2019-02-23T08:57:18.687Z,19.85
2019-02-23T08:58:18.382Z,19.86
2019-02-23T08:59:18.322Z,19.84
2019-02-23T09:00:19.995Z,19.86
2019-02-23T09:01:18.158Z,19.87
2019-02-23T09:02:18.257Z,19.89
2019-02-23T09:03:18.418Z,19.9
2019-02-23T09:04:18.506Z,19.91
2019-02-23T09:05:17.977Z,19.89
2019-02-23T09:06:18.353Z,19.9
2019-02-23T09:07:20.104Z,19.92
2019-02-23T09:08:19.043Z,19.9
2019-02-23T09:09:18.859Z,19.94
2019-02-23T09:10:18.605Z,19.95
2019-02-23T09:11:19.968Z,19.96
2019-02-23T09:12:18.353Z,19.96
2019-02-23T09:13:18.469Z,19.98
2019-02-23T09:14:18.374Z,19.99
2019-02-23T09:15:18.468Z,19.99
2019-02-23T09:16:18.174Z,20.01
2019-02-23T09:17:18.560Z,20.02
2019-02-23T09:18:18.311Z,20.02
2019-02-23T09:19:19.799Z,20.03
2019-02-23T09:20:29.875Z,20.04
2019-02-23T09:21:18.328Z,20.04
2019-02-23T09:22:18.652Z,20.05
2019-02-23T09:23:18.247Z,20.07
2019-02-23T09:24:18.460Z,20.07
2019-02-23T09:25:18.375Z,20.09
2019-02-23T09:26:18.454Z,20.11
2019-02-23T09:27:18.235Z,20.11
2019-02-23T09:28:18.692Z,20.11
2019-02-23T09:29:18.836Z,20.11
2019-02-23T09:30:19.073Z,20.12
2019-02-23T09:31:19.127Z,20.13
2019-02-23T09:32:18.301Z,20.16
2019-02-23T09:33:19.045Z,20.14
2019-02-23T09:34:18.137Z,20.16
2019-02-23T09:35:18.373Z,20.18
2019-02-23T09:36:18.276Z,20.2
2019-02-23T09:37:18.317Z,20.22
2019-02-23T09:38:18.454Z,20.2
2019-02-23T09:39:18.185Z,20.19
2019-02-23T09:40:19.605Z,20.21
2019-02-23T09:41:18.488Z,20.22
2019-02-23T09:42:18.303Z,20.25
2019-02-23T09:43:19.077Z,20.26
2019-02-23T09:44:18.546Z,20.29
2019-02-23T09:45:18.518Z,20.28
2019-02-23T09:46:18.017Z,20.27
2019-02-23T09:47:18.075Z,20.26
2019-02-23T09:48:18.622Z,20.29
2019-02-23T09:49:18.390Z,20.26
2019-02-23T09:50:18.697Z,20.27
2019-02-23T09:51:17.921Z,20.27
2019-02-23T09:52:17.996Z,20.28
2019-02-23T09:53:18.553Z,20.29
2019-02-23T09:54:18.150Z,20.27
2019-02-23T09:55:18.434Z,20.29
2019-02-23T09:56:18.342Z,20.3
2019-02-23T09:57:18.093Z,20.3
2019-02-23T09:58:19.242Z,20.3
2019-02-23T09:59:18.214Z,20.3
2019-02-23T10:00:18.080Z,20.31
2019-02-23T10:01:18.325Z,20.31
2019-02-23T10:02:18.817Z,20.31
2019-02-23T10:03:18.332Z,20.31
2019-02-23T10:04:18.194Z,20.34
2019-02-23T10:05:18.264Z,20.34
2019-02-23T10:06:18.757Z,20.35
2019-02-23T10:07:18.663Z,20.37
2019-02-23T10:08:18.441Z,20.36
2019-02-23T10:09:18.465Z,20.35
2019-02-23T10:10:18.209Z,20.35
2019-02-23T10:11:18.864Z,20.37
2019-02-23T10:12:18.404Z,20.36
2019-02-23T10:13:18.910Z,20.35
2019-02-23T10:14:18.172Z,20.35
2019-02-23T10:15:18.635Z,20.35
2019-02-23T10:16:18.745Z,20.34
2019-02-23T10:17:19.059Z,20.34
2019-02-23T10:18:18.087Z,20.35
2019-02-23T10:19:18.461Z,20.34
2019-02-23T10:20:18.423Z,20.36
2019-02-23T10:21:19.205Z,20.35
2019-02-23T10:22:18.669Z,20.34
2019-02-23T10:23:22.759Z,20.37
2019-02-23T10:24:18.176Z,20.34
2019-02-23T10:25:18.299Z,20.35
2019-02-23T10:26:18.102Z,20.32
2019-02-23T10:27:18.588Z,20.35
2019-02-23T10:28:18.258Z,20.35
2019-02-23T10:29:18.306Z,20.39
2019-02-23T10:30:18.519Z,20.35
2019-02-23T10:31:18.650Z,20.34
2019-02-23T10:32:18.346Z,20.32
2019-02-23T10:33:18.226Z,20.32
2019-02-23T10:34:18.557Z,20.31
2019-02-23T10:35:19.084Z,20.28
2019-02-23T10:36:20.121Z,20.29
2019-02-23T10:37:18.465Z,20.27
2019-02-23T10:38:18.305Z,20.28
2019-02-23T10:39:18.307Z,20.27
2019-02-23T10:40:18.067Z,20.26
2019-02-23T10:41:18.242Z,20.26
2019-02-23T10:42:18.490Z,20.22
2019-02-23T10:43:18.329Z,20.24
2019-02-23T10:44:18.455Z,20.22
2019-02-23T10:45:18.610Z,20.21
2019-02-23T10:46:18.027Z,20.22
2019-02-23T10:47:18.184Z,20.24
2019-02-23T10:48:18.596Z,20.24
2019-02-23T10:49:18.093Z,20.25
2019-02-23T10:50:18.687Z,20.26
2019-02-23T10:51:18.775Z,20.24
2019-02-23T10:52:18.458Z,20.27
2019-02-23T10:53:18.178Z,20.25
2019-02-23T10:54:18.239Z,20.25
2019-02-23T10:55:18.154Z,20.25
2019-02-23T10:56:18.179Z,20.24
2019-02-23T10:57:19.637Z,20.22
2019-02-23T10:58:18.206Z,20.22
2019-02-23T10:59:18.232Z,20.22
2019-02-23T11:00:18.081Z,20.22
2019-02-23T11:01:18.973Z,20.25
2019-02-23T11:02:18.246Z,20.21
2019-02-23T11:03:18.437Z,20.21
2019-02-23T11:04:18.388Z,20.24
2019-02-23T11:05:18.655Z,20.21
2019-02-23T11:06:18.342Z,20.2
2019-02-23T11:07:20.020Z,20.21
2019-02-23T11:08:18.211Z,20.21
2019-02-23T11:09:18.447Z,20.19
2019-02-23T11:10:18.293Z,20.19
2019-02-23T11:11:17.889Z,20.2
2019-02-23T11:12:17.991Z,20.17
2019-02-23T11:13:18.421Z,20.18
2019-02-23T11:14:18.243Z,20.18
2019-02-23T11:15:18.208Z,20.16
2019-02-23T11:16:18.012Z,20.16
2019-02-23T11:17:18.458Z,20.16
2019-02-23T11:18:19.247Z,20.18
2019-02-23T11:19:18.671Z,20.15
2019-02-23T11:20:18.485Z,20.17
2019-02-23T11:21:18.883Z,20.13
2019-02-23T11:22:18.154Z,20.16
2019-02-23T11:23:18.073Z,20.16
2019-02-23T11:24:18.630Z,20.15
2019-02-23T11:25:18.258Z,20.12
2019-02-23T11:26:18.544Z,20.14
2019-02-23T11:27:18.111Z,20.15
2019-02-23T11:28:18.035Z,20.13
2019-02-23T11:29:18.118Z,20.12
2019-02-23T11:30:18.515Z,20.12
2019-02-23T11:31:18.401Z,20.14
2019-02-23T11:32:18.256Z,20.11
2019-02-23T11:33:18.592Z,20.11
2019-02-23T11:34:18.262Z,20.12
2019-02-23T11:35:18.225Z,20.13
2019-02-23T11:36:18.100Z,20.11
2019-02-23T11:37:18.335Z,20.12
2019-02-23T11:38:18.242Z,20.07
2019-02-23T11:39:18.094Z,20.12
2019-02-23T11:40:19.945Z,20.11
2019-02-23T11:41:18.415Z,20.12
2019-02-23T11:42:18.076Z,20.11
2019-02-23T11:43:18.153Z,20.11
2019-02-23T11:44:18.748Z,20.09
2019-02-23T11:45:18.181Z,20.11
2019-02-23T11:46:18.156Z,20.12
2019-02-23T11:47:18.297Z,20.1
2019-02-23T11:48:18.857Z,20.1
2019-02-23T11:49:18.365Z,20.09
2019-02-23T11:50:18.272Z,20.11
2019-02-23T11:51:18.240Z,20.1
2019-02-23T11:52:18.509Z,20.1
2019-02-23T11:53:18.192Z,20.1
2019-02-23T11:54:18.399Z,20.07
2019-02-23T11:55:18.486Z,20.12
2019-02-23T11:56:18.110Z,20.09
2019-02-23T11:57:18.346Z,20.1
2019-02-23T11:58:20.071Z,20.11
2019-02-23T11:59:18.972Z,20.09
2019-02-23T12:00:19.002Z,20.1
2019-02-23T12:01:18.780Z,20.07
2019-02-23T12:02:18.773Z,20.07
2019-02-23T12:03:18.618Z,20.07
2019-02-23T12:04:18.019Z,20.06
2019-02-23T12:05:18.210Z,20.04
2019-02-23T12:06:18.461Z,20.03
2019-02-23T12:07:18.291Z,20.04
2019-02-23T12:08:18.290Z,20.03
2019-02-23T12:09:18.248Z,20.02
2019-02-23T12:10:19.045Z,20.02
2019-02-23T12:11:18.437Z,19.99
2019-02-23T12:12:18.836Z,20.01
2019-02-23T12:13:19.955Z,20.01
2019-02-23T12:14:18.671Z,20.04
2019-02-23T12:15:18.360Z,20.05
2019-02-23T12:16:18.223Z,20.05
2019-02-23T12:17:18.133Z,20.05
2019-02-23T12:18:18.126Z,20.07
2019-02-23T12:19:18.460Z,20.04
2019-02-23T12:20:18.474Z,20.07
2019-02-23T12:21:18.090Z,20.03
2019-02-23T12:22:18.405Z,20.07
2019-02-23T12:23:19.099Z,20.07
2019-02-23T12:24:17.980Z,20.07
2019-02-23T12:25:18.848Z,20.06
2019-02-23T12:26:19.905Z,20.1
2019-02-23T12:27:18.229Z,20.09
2019-02-23T12:28:18.459Z,20.07
2019-02-23T12:29:18.661Z,20.1
2019-02-23T12:30:18.988Z,20.1
2019-02-23T12:31:18.362Z,20.07
2019-02-23T12:32:18.274Z,20.09
2019-02-23T12:33:18.510Z,20.07
2019-02-23T12:34:18.117Z,20.05
2019-02-23T12:35:18.543Z,20.09
2019-02-23T12:36:18.094Z,20.09
2019-02-23T12:37:18.504Z,20.09
2019-02-23T12:38:18.179Z,20.09
2019-02-23T12:39:18.445Z,20.07
2019-02-23T12:40:18.019Z,20.1
2019-02-23T12:41:19.564Z,20.07
2019-02-23T12:42:18.467Z,20.07
2019-02-23T12:43:18.261Z,20.07
2019-02-23T12:44:18.946Z,20.07
2019-02-23T12:45:18.975Z,20.07
2019-02-23T12:46:17.965Z,20.09
2019-02-23T12:47:18.068Z,20.07
2019-02-23T12:48:18.300Z,20.09
2019-02-23T12:49:18.073Z,20.07
2019-02-23T12:50:18.227Z,20.07
2019-02-23T12:51:18.100Z,20.04
2019-02-23T12:52:18.349Z,20.04
2019-02-23T12:53:18.411Z,20.03
2019-02-23T12:54:19.894Z,20.02
2019-02-23T12:55:18.100Z,20